sensor_id;sensor_type;location;lat;lon;timestamp;P1;durP1;ratioP1;P2;durP2;ratioP2
59424;SDS011;45231;44.826;20.312;2023-01-30T00:00:49;22.98;;;14.00;;
59424;SDS011;45231;44.826;20.312;2023-01-30T00:03:16;25.92;;;15.13;;
59424;SDS011;45231;44.826;20.312;2023-01-30T00:05:42;24.83;;;15.55;;
59424;SDS011;45231;44.826;20.312;2023-01-30T00:08:08;30.38;;;16.50;;
59424;SDS011;45231;44.826;20.312;2023-01-30T00:10:34;27.33;;;16.88;;
59424;SDS011;45231;44.826;20.312;2023-01-30T00:13:00;28.30;;;16.05;;
59424;SDS011;45231;44.826;20.312;2023-01-30T00:15:26;26.65;;;16.05;;
59424;SDS011;45231;44.826;20.312;2023-01-30T00:17:52;30.65;;;17.40;;
59424;SDS011;45231;44.826;20.312;2023-01-30T00:20:18;29.60;;;17.08;;
59424;SDS011;45231;44.826;20.312;2023-01-30T00:22:44;27.38;;;16.42;;
59424;SDS011;45231;44.826;20.312;2023-01-30T00:25:10;27.55;;;16.23;;
59424;SDS011;45231;44.826;20.312;2023-01-30T00:27:36;28.42;;;16.98;;
59424;SDS011;45231;44.826;20.312;2023-01-30T00:30:02;26.92;;;16.65;;
59424;SDS011;45231;44.826;20.312;2023-01-30T00:32:31;28.85;;;16.55;;
59424;SDS011;45231;44.826;20.312;2023-01-30T00:34:57;25.95;;;15.88;;
59424;SDS011;45231;44.826;20.312;2023-01-30T00:37:23;21.05;;;12.85;;
59424;SDS011;45231;44.826;20.312;2023-01-30T00:39:49;27.13;;;15.77;;
59424;SDS011;45231;44.826;20.312;2023-01-30T00:42:15;24.35;;;14.73;;
59424;SDS011;45231;44.826;20.312;2023-01-30T00:45:00;24.20;;;14.68;;
59424;SDS011;45231;44.826;20.312;2023-01-30T00:48:01;25.20;;;14.65;;
59424;SDS011;45231;44.826;20.312;2023-01-30T00:50:27;23.63;;;14.57;;
59424;SDS011;45231;44.826;20.312;2023-01-30T00:53:09;24.27;;;14.05;;
59424;SDS011;45231;44.826;20.312;2023-01-30T00:55:36;23.27;;;13.90;;
59424;SDS011;45231;44.826;20.312;2023-01-30T00:58:02;25.63;;;14.50;;
59424;SDS011;45231;44.826;20.312;2023-01-30T01:00:28;25.17;;;14.43;;
59424;SDS011;45231;44.826;20.312;2023-01-30T01:02:54;24.38;;;14.95;;
59424;SDS011;45231;44.826;20.312;2023-01-30T01:05:20;28.20;;;16.20;;
59424;SDS011;45231;44.826;20.312;2023-01-30T01:07:46;27.38;;;16.88;;
59424;SDS011;45231;44.826;20.312;2023-01-30T01:10:12;28.60;;;16.77;;
59424;SDS011;45231;44.826;20.312;2023-01-30T01:12:43;30.27;;;17.73;;
59424;SDS011;45231;44.826;20.312;2023-01-30T01:15:09;31.90;;;19.02;;
59424;SDS011;45231;44.826;20.312;2023-01-30T01:17:36;30.38;;;17.85;;
59424;SDS011;45231;44.826;20.312;2023-01-30T01:20:03;22.97;;;13.60;;
59424;SDS011;45231;44.826;20.312;2023-01-30T01:22:29;28.92;;;16.92;;
59424;SDS011;45231;44.826;20.312;2023-01-30T01:24:55;32.05;;;17.75;;
59424;SDS011;45231;44.826;20.312;2023-01-30T01:27:21;31.77;;;17.80;;
59424;SDS011;45231;44.826;20.312;2023-01-30T01:29:53;28.95;;;16.65;;
59424;SDS011;45231;44.826;20.312;2023-01-30T01:32:20;28.17;;;15.93;;
59424;SDS011;45231;44.826;20.312;2023-01-30T01:34:46;29.48;;;17.58;;
59424;SDS011;45231;44.826;20.312;2023-01-30T01:37:12;30.95;;;18.50;;
59424;SDS011;45231;44.826;20.312;2023-01-30T01:39:38;32.60;;;18.63;;
59424;SDS011;45231;44.826;20.312;2023-01-30T01:42:33;30.77;;;17.83;;
59424;SDS011;45231;44.826;20.312;2023-01-30T01:47:28;31.02;;;17.55;;
59424;SDS011;45231;44.826;20.312;2023-01-30T01:49:54;30.70;;;17.70;;
59424;SDS011;45231;44.826;20.312;2023-01-30T01:52:20;31.83;;;18.50;;
59424;SDS011;45231;44.826;20.312;2023-01-30T01:54:56;31.63;;;18.35;;
59424;SDS011;45231;44.826;20.312;2023-01-30T01:57:30;32.67;;;17.40;;
59424;SDS011;45231;44.826;20.312;2023-01-30T02:00:00;32.40;;;18.60;;
59424;SDS011;45231;44.826;20.312;2023-01-30T02:02:28;30.92;;;17.60;;
59424;SDS011;45231;44.826;20.312;2023-01-30T02:04:55;30.20;;;17.50;;
59424;SDS011;45231;44.826;20.312;2023-01-30T02:07:26;31.45;;;18.33;;
59424;SDS011;45231;44.826;20.312;2023-01-30T02:09:54;32.95;;;18.42;;
59424;SDS011;45231;44.826;20.312;2023-01-30T02:12:20;35.15;;;18.50;;
59424;SDS011;45231;44.826;20.312;2023-01-30T02:14:46;33.15;;;18.70;;
59424;SDS011;45231;44.826;20.312;2023-01-30T02:17:12;28.33;;;16.77;;
59424;SDS011;45231;44.826;20.312;2023-01-30T02:33:00;31.33;;;18.00;;
59424;SDS011;45231;44.826;20.312;2023-01-30T02:38:03;29.90;;;17.40;;
59424;SDS011;45231;44.826;20.312;2023-01-30T02:46:10;30.67;;;17.10;;
59424;SDS011;45231;44.826;20.312;2023-01-30T02:51:06;29.70;;;17.35;;
59424;SDS011;45231;44.826;20.312;2023-01-30T02:53:34;29.20;;;16.95;;
59424;SDS011;45231;44.826;20.312;2023-01-30T02:56:01;31.95;;;18.20;;
59424;SDS011;45231;44.826;20.312;2023-01-30T02:58:37;34.70;;;18.25;;
59424;SDS011;45231;44.826;20.312;2023-01-30T03:04:14;35.50;;;19.20;;
59424;SDS011;45231;44.826;20.312;2023-01-30T03:14:27;34.63;;;19.48;;
59424;SDS011;45231;44.826;20.312;2023-01-30T03:16:55;34.70;;;19.65;;
59424;SDS011;45231;44.826;20.312;2023-01-30T03:19:22;32.35;;;20.00;;
59424;SDS011;45231;44.826;20.312;2023-01-30T03:21:48;34.80;;;19.73;;
59424;SDS011;45231;44.826;20.312;2023-01-30T03:24:14;36.47;;;19.77;;
59424;SDS011;45231;44.826;20.312;2023-01-30T03:26:48;35.60;;;19.63;;
59424;SDS011;45231;44.826;20.312;2023-01-30T03:29:17;33.50;;;18.88;;
59424;SDS011;45231;44.826;20.312;2023-01-30T03:31:43;37.05;;;19.58;;
59424;SDS011;45231;44.826;20.312;2023-01-30T03:34:09;37.55;;;19.45;;
59424;SDS011;45231;44.826;20.312;2023-01-30T03:36:35;32.22;;;18.65;;
59424;SDS011;45231;44.826;20.312;2023-01-30T03:39:02;33.67;;;18.70;;
59424;SDS011;45231;44.826;20.312;2023-01-30T03:41:28;34.95;;;19.60;;
59424;SDS011;45231;44.826;20.312;2023-01-30T03:43:54;35.20;;;20.17;;
59424;SDS011;45231;44.826;20.312;2023-01-30T03:46:20;34.75;;;19.15;;
59424;SDS011;45231;44.826;20.312;2023-01-30T03:48:46;31.50;;;17.77;;
59424;SDS011;45231;44.826;20.312;2023-01-30T03:51:12;34.00;;;19.60;;
59424;SDS011;45231;44.826;20.312;2023-01-30T03:53:38;35.13;;;20.23;;
59424;SDS011;45231;44.826;20.312;2023-01-30T03:56:05;38.08;;;20.38;;
59424;SDS011;45231;44.826;20.312;2023-01-30T03:58:31;34.58;;;20.00;;
59424;SDS011;45231;44.826;20.312;2023-01-30T04:00:57;35.80;;;20.45;;
59424;SDS011;45231;44.826;20.312;2023-01-30T04:03:23;37.22;;;20.45;;
59424;SDS011;45231;44.826;20.312;2023-01-30T04:05:49;35.85;;;20.77;;
59424;SDS011;45231;44.826;20.312;2023-01-30T04:08:15;35.20;;;19.52;;
59424;SDS011;45231;44.826;20.312;2023-01-30T04:10:41;34.17;;;19.63;;
59424;SDS011;45231;44.826;20.312;2023-01-30T04:13:07;35.00;;;20.17;;
59424;SDS011;45231;44.826;20.312;2023-01-30T04:15:33;35.47;;;20.27;;
59424;SDS011;45231;44.826;20.312;2023-01-30T04:17:59;40.90;;;21.90;;
59424;SDS011;45231;44.826;20.312;2023-01-30T04:20:25;35.58;;;21.15;;
59424;SDS011;45231;44.826;20.312;2023-01-30T04:22:53;34.58;;;19.33;;
59424;SDS011;45231;44.826;20.312;2023-01-30T04:25:19;32.75;;;19.38;;
59424;SDS011;45231;44.826;20.312;2023-01-30T04:27:45;35.45;;;19.92;;
59424;SDS011;45231;44.826;20.312;2023-01-30T04:30:11;34.58;;;19.70;;
59424;SDS011;45231;44.826;20.312;2023-01-30T04:32:37;35.07;;;19.43;;
59424;SDS011;45231;44.826;20.312;2023-01-30T04:35:03;30.80;;;18.38;;
59424;SDS011;45231;44.826;20.312;2023-01-30T04:37:29;32.97;;;18.90;;
59424;SDS011;45231;44.826;20.312;2023-01-30T04:39:55;30.48;;;17.23;;
59424;SDS011;45231;44.826;20.312;2023-01-30T04:42:21;30.50;;;17.90;;
59424;SDS011;45231;44.826;20.312;2023-01-30T04:44:47;30.10;;;17.58;;
59424;SDS011;45231;44.826;20.312;2023-01-30T04:47:13;30.17;;;18.05;;
59424;SDS011;45231;44.826;20.312;2023-01-30T04:49:42;31.05;;;17.67;;
59424;SDS011;45231;44.826;20.312;2023-01-30T04:52:14;32.45;;;18.13;;
59424;SDS011;45231;44.826;20.312;2023-01-30T04:54:40;29.10;;;17.00;;
59424;SDS011;45231;44.826;20.312;2023-01-30T04:57:06;27.63;;;15.57;;
59424;SDS011;45231;44.826;20.312;2023-01-30T04:59:32;25.93;;;15.00;;
59424;SDS011;45231;44.826;20.312;2023-01-30T05:01:58;21.88;;;13.73;;
59424;SDS011;45231;44.826;20.312;2023-01-30T05:04:24;23.13;;;14.20;;
59424;SDS011;45231;44.826;20.312;2023-01-30T05:06:50;23.88;;;15.38;;
59424;SDS011;45231;44.826;20.312;2023-01-30T05:09:16;20.17;;;11.85;;
59424;SDS011;45231;44.826;20.312;2023-01-30T05:11:43;19.02;;;11.77;;
59424;SDS011;45231;44.826;20.312;2023-01-30T05:14:09;16.95;;;10.68;;
59424;SDS011;45231;44.826;20.312;2023-01-30T05:16:35;16.38;;;10.35;;
59424;SDS011;45231;44.826;20.312;2023-01-30T05:19:01;16.55;;;10.18;;
59424;SDS011;45231;44.826;20.312;2023-01-30T05:21:27;18.17;;;10.38;;
59424;SDS011;45231;44.826;20.312;2023-01-30T05:23:53;18.45;;;11.00;;
59424;SDS011;45231;44.826;20.312;2023-01-30T05:26:20;18.67;;;10.95;;
59424;SDS011;45231;44.826;20.312;2023-01-30T05:28:53;21.42;;;10.73;;
59424;SDS011;45231;44.826;20.312;2023-01-30T05:31:20;16.77;;;10.15;;
59424;SDS011;45231;44.826;20.312;2023-01-30T05:33:47;23.52;;;13.10;;
59424;SDS011;45231;44.826;20.312;2023-01-30T05:36:20;17.92;;;11.10;;
59424;SDS011;45231;44.826;20.312;2023-01-30T05:38:47;18.33;;;10.98;;
59424;SDS011;45231;44.826;20.312;2023-01-30T05:43:40;22.63;;;11.63;;
59424;SDS011;45231;44.826;20.312;2023-01-30T05:46:06;21.60;;;13.20;;
59424;SDS011;45231;44.826;20.312;2023-01-30T05:48:34;18.65;;;11.05;;
59424;SDS011;45231;44.826;20.312;2023-01-30T05:51:13;18.50;;;11.25;;
59424;SDS011;45231;44.826;20.312;2023-01-30T05:53:40;19.92;;;11.70;;
59424;SDS011;45231;44.826;20.312;2023-01-30T05:56:06;18.65;;;10.90;;
59424;SDS011;45231;44.826;20.312;2023-01-30T05:58:32;17.73;;;10.93;;
59424;SDS011;45231;44.826;20.312;2023-01-30T06:01:05;19.10;;;11.88;;
59424;SDS011;45231;44.826;20.312;2023-01-30T06:03:33;17.13;;;10.60;;
59424;SDS011;45231;44.826;20.312;2023-01-30T06:06:00;17.33;;;10.57;;
59424;SDS011;45231;44.826;20.312;2023-01-30T06:08:34;17.20;;;10.75;;
59424;SDS011;45231;44.826;20.312;2023-01-30T06:11:04;22.73;;;12.67;;
59424;SDS011;45231;44.826;20.312;2023-01-30T06:13:31;21.00;;;11.25;;
59424;SDS011;45231;44.826;20.312;2023-01-30T06:15:57;21.85;;;13.23;;
59424;SDS011;45231;44.826;20.312;2023-01-30T06:18:23;21.00;;;11.85;;
59424;SDS011;45231;44.826;20.312;2023-01-30T06:20:50;20.50;;;12.30;;
59424;SDS011;45231;44.826;20.312;2023-01-30T06:23:17;21.38;;;12.63;;
59424;SDS011;45231;44.826;20.312;2023-01-30T06:25:44;20.58;;;11.85;;
59424;SDS011;45231;44.826;20.312;2023-01-30T06:28:10;22.73;;;12.70;;
59424;SDS011;45231;44.826;20.312;2023-01-30T06:30:36;19.30;;;11.88;;
59424;SDS011;45231;44.826;20.312;2023-01-30T06:33:02;17.80;;;11.80;;
59424;SDS011;45231;44.826;20.312;2023-01-30T06:35:28;21.27;;;12.68;;
59424;SDS011;45231;44.826;20.312;2023-01-30T06:37:54;21.17;;;12.77;;
59424;SDS011;45231;44.826;20.312;2023-01-30T06:40:20;22.20;;;14.15;;
59424;SDS011;45231;44.826;20.312;2023-01-30T06:42:47;48.42;;;22.63;;
59424;SDS011;45231;44.826;20.312;2023-01-30T06:45:15;87.03;;;37.45;;
59424;SDS011;45231;44.826;20.312;2023-01-30T06:47:45;77.45;;;36.33;;
59424;SDS011;45231;44.826;20.312;2023-01-30T06:50:20;52.42;;;27.42;;
59424;SDS011;45231;44.826;20.312;2023-01-30T06:52:50;28.83;;;16.80;;
59424;SDS011;45231;44.826;20.312;2023-01-30T06:55:17;27.75;;;14.82;;
59424;SDS011;45231;44.826;20.312;2023-01-30T06:57:44;22.25;;;13.07;;
59424;SDS011;45231;44.826;20.312;2023-01-30T07:00:11;21.00;;;13.00;;
59424;SDS011;45231;44.826;20.312;2023-01-30T07:02:38;23.83;;;13.85;;
59424;SDS011;45231;44.826;20.312;2023-01-30T07:05:04;20.73;;;12.93;;
59424;SDS011;45231;44.826;20.312;2023-01-30T07:07:31;22.35;;;12.93;;
59424;SDS011;45231;44.826;20.312;2023-01-30T07:09:57;23.25;;;12.07;;
59424;SDS011;45231;44.826;20.312;2023-01-30T07:12:24;18.58;;;11.88;;
59424;SDS011;45231;44.826;20.312;2023-01-30T07:14:51;16.90;;;11.80;;
59424;SDS011;45231;44.826;20.312;2023-01-30T07:17:18;18.30;;;11.93;;
59424;SDS011;45231;44.826;20.312;2023-01-30T07:19:44;19.00;;;11.82;;
59424;SDS011;45231;44.826;20.312;2023-01-30T07:22:10;21.57;;;15.43;;
59424;SDS011;45231;44.826;20.312;2023-01-30T07:24:36;24.37;;;16.10;;
59424;SDS011;45231;44.826;20.312;2023-01-30T07:27:05;26.73;;;17.90;;
59424;SDS011;45231;44.826;20.312;2023-01-30T07:29:33;30.70;;;19.80;;
59424;SDS011;45231;44.826;20.312;2023-01-30T07:31:59;33.42;;;20.58;;
59424;SDS011;45231;44.826;20.312;2023-01-30T07:34:31;24.60;;;14.57;;
59424;SDS011;45231;44.826;20.312;2023-01-30T07:36:57;28.30;;;17.25;;
59424;SDS011;45231;44.826;20.312;2023-01-30T07:39:23;31.05;;;18.58;;
59424;SDS011;45231;44.826;20.312;2023-01-30T07:41:50;33.73;;;18.13;;
59424;SDS011;45231;44.826;20.312;2023-01-30T07:44:16;26.13;;;16.55;;
59424;SDS011;45231;44.826;20.312;2023-01-30T07:46:42;20.73;;;12.40;;
59424;SDS011;45231;44.826;20.312;2023-01-30T07:49:08;26.83;;;16.92;;
59424;SDS011;45231;44.826;20.312;2023-01-30T07:51:34;18.67;;;12.43;;
59424;SDS011;45231;44.826;20.312;2023-01-30T07:54:00;20.02;;;13.32;;
59424;SDS011;45231;44.826;20.312;2023-01-30T07:56:28;17.30;;;11.73;;
59424;SDS011;45231;44.826;20.312;2023-01-30T07:58:54;16.63;;;11.05;;
59424;SDS011;45231;44.826;20.312;2023-01-30T08:01:20;14.57;;;10.63;;
59424;SDS011;45231;44.826;20.312;2023-01-30T08:03:46;14.75;;;10.20;;
59424;SDS011;45231;44.826;20.312;2023-01-30T08:06:16;13.48;;;10.15;;
59424;SDS011;45231;44.826;20.312;2023-01-30T08:08:43;17.15;;;11.95;;
59424;SDS011;45231;44.826;20.312;2023-01-30T08:11:09;12.90;;;9.60;;
59424;SDS011;45231;44.826;20.312;2023-01-30T08:13:35;12.07;;;8.65;;
59424;SDS011;45231;44.826;20.312;2023-01-30T08:16:02;12.35;;;8.80;;
59424;SDS011;45231;44.826;20.312;2023-01-30T08:20:58;12.35;;;8.60;;
59424;SDS011;45231;44.826;20.312;2023-01-30T08:23:24;16.58;;;11.30;;
59424;SDS011;45231;44.826;20.312;2023-01-30T08:25:57;16.02;;;10.18;;
59424;SDS011;45231;44.826;20.312;2023-01-30T08:28:23;13.63;;;9.43;;
59424;SDS011;45231;44.826;20.312;2023-01-30T08:30:50;14.35;;;9.77;;
59424;SDS011;45231;44.826;20.312;2023-01-30T08:33:25;13.07;;;8.98;;
59424;SDS011;45231;44.826;20.312;2023-01-30T08:35:52;13.20;;;9.85;;
59424;SDS011;45231;44.826;20.312;2023-01-30T08:38:18;13.18;;;9.50;;
59424;SDS011;45231;44.826;20.312;2023-01-30T08:40:44;12.32;;;9.18;;
59424;SDS011;45231;44.826;20.312;2023-01-30T08:45:36;11.80;;;9.27;;
59424;SDS011;45231;44.826;20.312;2023-01-30T08:48:03;12.88;;;9.75;;
59424;SDS011;45231;44.826;20.312;2023-01-30T08:50:30;12.27;;;9.32;;
59424;SDS011;45231;44.826;20.312;2023-01-30T08:52:57;13.02;;;10.50;;
59424;SDS011;45231;44.826;20.312;2023-01-30T08:55:27;13.35;;;10.90;;
59424;SDS011;45231;44.826;20.312;2023-01-30T08:57:54;14.18;;;11.35;;
59424;SDS011;45231;44.826;20.312;2023-01-30T09:00:21;11.57;;;8.88;;
59424;SDS011;45231;44.826;20.312;2023-01-30T09:02:47;12.60;;;9.25;;
59424;SDS011;45231;44.826;20.312;2023-01-30T09:05:13;10.30;;;8.50;;
59424;SDS011;45231;44.826;20.312;2023-01-30T09:07:39;11.75;;;9.00;;
59424;SDS011;45231;44.826;20.312;2023-01-30T09:10:05;11.25;;;9.27;;
59424;SDS011;45231;44.826;20.312;2023-01-30T09:12:31;11.90;;;10.05;;
59424;SDS011;45231;44.826;20.312;2023-01-30T09:14:57;14.00;;;11.07;;
59424;SDS011;45231;44.826;20.312;2023-01-30T09:17:24;12.10;;;10.80;;
59424;SDS011;45231;44.826;20.312;2023-01-30T09:22:16;10.32;;;8.20;;
59424;SDS011;45231;44.826;20.312;2023-01-30T09:24:42;9.98;;;7.80;;
59424;SDS011;45231;44.826;20.312;2023-01-30T09:27:08;10.70;;;8.38;;
59424;SDS011;45231;44.826;20.312;2023-01-30T09:29:34;11.27;;;8.48;;
59424;SDS011;45231;44.826;20.312;2023-01-30T09:32:02;10.98;;;8.75;;
59424;SDS011;45231;44.826;20.312;2023-01-30T09:34:28;10.52;;;8.60;;
59424;SDS011;45231;44.826;20.312;2023-01-30T09:36:55;9.75;;;8.35;;
59424;SDS011;45231;44.826;20.312;2023-01-30T09:39:21;11.73;;;9.23;;
59424;SDS011;45231;44.826;20.312;2023-01-30T09:41:50;11.77;;;8.70;;
59424;SDS011;45231;44.826;20.312;2023-01-30T09:54:54;11.30;;;9.43;;
59424;SDS011;45231;44.826;20.312;2023-01-30T09:57:23;10.45;;;8.10;;
59424;SDS011;45231;44.826;20.312;2023-01-30T10:04:43;10.27;;;8.23;;
59424;SDS011;45231;44.826;20.312;2023-01-30T10:07:15;12.45;;;9.00;;
59424;SDS011;45231;44.826;20.312;2023-01-30T10:10:07;11.88;;;9.00;;
59424;SDS011;45231;44.826;20.312;2023-01-30T10:15:22;12.32;;;9.00;;
59424;SDS011;45231;44.826;20.312;2023-01-30T10:17:58;11.93;;;9.25;;
59424;SDS011;45231;44.826;20.312;2023-01-30T10:28:37;12.20;;;8.68;;
59424;SDS011;45231;44.826;20.312;2023-01-30T10:31:04;11.68;;;8.95;;
59424;SDS011;45231;44.826;20.312;2023-01-30T10:36:13;12.63;;;8.73;;
59424;SDS011;45231;44.826;20.312;2023-01-30T10:38:44;11.65;;;8.82;;
59424;SDS011;45231;44.826;20.312;2023-01-30T10:43:41;11.57;;;8.55;;
59424;SDS011;45231;44.826;20.312;2023-01-30T10:48:54;13.10;;;9.18;;
59424;SDS011;45231;44.826;20.312;2023-01-30T10:53:55;11.83;;;8.80;;
59424;SDS011;45231;44.826;20.312;2023-01-30T11:01:48;13.57;;;8.85;;
59424;SDS011;45231;44.826;20.312;2023-01-30T11:06:52;11.73;;;8.65;;
59424;SDS011;45231;44.826;20.312;2023-01-30T11:09:19;13.02;;;9.15;;
59424;SDS011;45231;44.826;20.312;2023-01-30T11:14:11;14.00;;;9.85;;
59424;SDS011;45231;44.826;20.312;2023-01-30T11:19:09;14.15;;;9.57;;
59424;SDS011;45231;44.826;20.312;2023-01-30T11:21:36;16.05;;;9.85;;
59424;SDS011;45231;44.826;20.312;2023-01-30T11:24:04;13.73;;;9.55;;
59424;SDS011;45231;44.826;20.312;2023-01-30T11:26:36;15.48;;;10.20;;
59424;SDS011;45231;44.826;20.312;2023-01-30T11:29:36;15.07;;;9.67;;
59424;SDS011;45231;44.826;20.312;2023-01-30T11:31:55;15.20;;;9.77;;
59424;SDS011;45231;44.826;20.312;2023-01-30T11:34:22;15.70;;;10.30;;
59424;SDS011;45231;44.826;20.312;2023-01-30T11:36:49;15.85;;;10.73;;
59424;SDS011;45231;44.826;20.312;2023-01-30T11:41:57;15.95;;;10.57;;
59424;SDS011;45231;44.826;20.312;2023-01-30T11:44:26;16.77;;;11.20;;
59424;SDS011;45231;44.826;20.312;2023-01-30T11:46:53;15.40;;;10.45;;
59424;SDS011;45231;44.826;20.312;2023-01-30T11:49:31;15.77;;;10.43;;
59424;SDS011;45231;44.826;20.312;2023-01-30T11:51:57;16.25;;;11.35;;
59424;SDS011;45231;44.826;20.312;2023-01-30T11:54:33;15.77;;;10.77;;
59424;SDS011;45231;44.826;20.312;2023-01-30T11:57:02;16.17;;;10.68;;
59424;SDS011;45231;44.826;20.312;2023-01-30T11:59:30;14.85;;;9.88;;
59424;SDS011;45231;44.826;20.312;2023-01-30T12:02:05;17.17;;;11.60;;
59424;SDS011;45231;44.826;20.312;2023-01-30T12:04:36;16.02;;;11.65;;
59424;SDS011;45231;44.826;20.312;2023-01-30T12:07:07;17.20;;;12.05;;
59424;SDS011;45231;44.826;20.312;2023-01-30T12:09:39;16.35;;;11.88;;
59424;SDS011;45231;44.826;20.312;2023-01-30T12:17:39;20.27;;;13.27;;
59424;SDS011;45231;44.826;20.312;2023-01-30T12:22:51;21.17;;;13.90;;
59424;SDS011;45231;44.826;20.312;2023-01-30T12:25:31;20.05;;;13.77;;
59424;SDS011;45231;44.826;20.312;2023-01-30T12:28:19;19.52;;;13.13;;
59424;SDS011;45231;44.826;20.312;2023-01-30T12:33:14;20.57;;;14.07;;
59424;SDS011;45231;44.826;20.312;2023-01-30T12:43:38;21.08;;;12.52;;
59424;SDS011;45231;44.826;20.312;2023-01-30T12:46:20;19.80;;;13.65;;
59424;SDS011;45231;44.826;20.312;2023-01-30T12:56:51;20.17;;;12.98;;
59424;SDS011;45231;44.826;20.312;2023-01-30T13:04:57;21.85;;;13.73;;
59424;SDS011;45231;44.826;20.312;2023-01-30T13:20:34;22.75;;;15.25;;
59424;SDS011;45231;44.826;20.312;2023-01-30T13:23:14;22.95;;;14.18;;
59424;SDS011;45231;44.826;20.312;2023-01-30T13:25:58;23.42;;;14.82;;
59424;SDS011;45231;44.826;20.312;2023-01-30T13:28:28;24.13;;;14.55;;
59424;SDS011;45231;44.826;20.312;2023-01-30T13:30:56;23.65;;;15.10;;
59424;SDS011;45231;44.826;20.312;2023-01-30T13:33:27;26.80;;;15.75;;
59424;SDS011;45231;44.826;20.312;2023-01-30T13:38:51;26.77;;;16.25;;
59424;SDS011;45231;44.826;20.312;2023-01-30T13:41:20;24.13;;;15.30;;
59424;SDS011;45231;44.826;20.312;2023-01-30T13:43:49;25.90;;;16.38;;
59424;SDS011;45231;44.826;20.312;2023-01-30T13:46:18;25.88;;;14.85;;
59424;SDS011;45231;44.826;20.312;2023-01-30T13:48:56;25.15;;;15.73;;
59424;SDS011;45231;44.826;20.312;2023-01-30T13:51:36;25.85;;;14.48;;
59424;SDS011;45231;44.826;20.312;2023-01-30T13:56:53;28.65;;;16.48;;
59424;SDS011;45231;44.826;20.312;2023-01-30T13:59:42;31.67;;;18.17;;
59424;SDS011;45231;44.826;20.312;2023-01-30T14:02:18;28.73;;;16.73;;
59424;SDS011;45231;44.826;20.312;2023-01-30T14:04:46;28.15;;;16.77;;
59424;SDS011;45231;44.826;20.312;2023-01-30T14:10:04;26.85;;;15.57;;
59424;SDS011;45231;44.826;20.312;2023-01-30T14:20:21;27.15;;;16.38;;
59424;SDS011;45231;44.826;20.312;2023-01-30T14:22:56;25.45;;;16.27;;
59424;SDS011;45231;44.826;20.312;2023-01-30T14:32:56;27.10;;;16.23;;
59424;SDS011;45231;44.826;20.312;2023-01-30T14:35:24;31.70;;;17.02;;
59424;SDS011;45231;44.826;20.312;2023-01-30T14:37:51;29.33;;;17.40;;
59424;SDS011;45231;44.826;20.312;2023-01-30T14:40:29;28.77;;;17.75;;
59424;SDS011;45231;44.826;20.312;2023-01-30T14:45:55;32.22;;;19.13;;
59424;SDS011;45231;44.826;20.312;2023-01-30T14:48:44;30.15;;;18.60;;
59424;SDS011;45231;44.826;20.312;2023-01-30T14:53:58;34.85;;;19.65;;
59424;SDS011;45231;44.826;20.312;2023-01-30T15:04:20;34.22;;;19.55;;
59424;SDS011;45231;44.826;20.312;2023-01-30T15:06:47;36.13;;;20.65;;
59424;SDS011;45231;44.826;20.312;2023-01-30T15:09:24;35.28;;;19.23;;
59424;SDS011;45231;44.826;20.312;2023-01-30T15:17:37;34.80;;;18.95;;
59424;SDS011;45231;44.826;20.312;2023-01-30T15:20:42;39.72;;;21.33;;
59424;SDS011;45231;44.826;20.312;2023-01-30T15:23:09;38.42;;;22.23;;
59424;SDS011;45231;44.826;20.312;2023-01-30T15:30:43;37.40;;;21.90;;
59424;SDS011;45231;44.826;20.312;2023-01-30T15:33:16;38.63;;;21.45;;
59424;SDS011;45231;44.826;20.312;2023-01-30T15:35:43;36.08;;;20.23;;
59424;SDS011;45231;44.826;20.312;2023-01-30T15:38:22;37.90;;;20.80;;
59424;SDS011;45231;44.826;20.312;2023-01-30T15:40:50;37.85;;;20.30;;
59424;SDS011;45231;44.826;20.312;2023-01-30T15:46:15;34.20;;;19.52;;
59424;SDS011;45231;44.826;20.312;2023-01-30T15:51:10;40.00;;;20.58;;
59424;SDS011;45231;44.826;20.312;2023-01-30T15:53:39;37.70;;;21.33;;
59424;SDS011;45231;44.826;20.312;2023-01-30T15:56:07;45.30;;;23.17;;
59424;SDS011;45231;44.826;20.312;2023-01-30T15:58:39;41.85;;;22.13;;
59424;SDS011;45231;44.826;20.312;2023-01-30T16:01:05;44.40;;;23.23;;
59424;SDS011;45231;44.826;20.312;2023-01-30T16:03:32;42.22;;;22.88;;
59424;SDS011;45231;44.826;20.312;2023-01-30T16:06:02;45.50;;;24.65;;
59424;SDS011;45231;44.826;20.312;2023-01-30T16:08:29;41.08;;;23.00;;
59424;SDS011;45231;44.826;20.312;2023-01-30T16:10:55;44.88;;;24.58;;
59424;SDS011;45231;44.826;20.312;2023-01-30T16:13:22;42.95;;;22.95;;
59424;SDS011;45231;44.826;20.312;2023-01-30T16:18:21;39.80;;;23.10;;
59424;SDS011;45231;44.826;20.312;2023-01-30T16:20:59;42.40;;;24.15;;
59424;SDS011;45231;44.826;20.312;2023-01-30T16:23:37;43.47;;;22.70;;
59424;SDS011;45231;44.826;20.312;2023-01-30T16:26:06;42.17;;;23.02;;
59424;SDS011;45231;44.826;20.312;2023-01-30T16:28:34;39.22;;;22.45;;
59424;SDS011;45231;44.826;20.312;2023-01-30T16:31:02;42.40;;;24.07;;
59424;SDS011;45231;44.826;20.312;2023-01-30T16:33:29;41.45;;;22.80;;
59424;SDS011;45231;44.826;20.312;2023-01-30T16:36:00;43.42;;;24.38;;
59424;SDS011;45231;44.826;20.312;2023-01-30T16:38:33;45.60;;;24.85;;
59424;SDS011;45231;44.826;20.312;2023-01-30T16:41:00;47.20;;;24.55;;
59424;SDS011;45231;44.826;20.312;2023-01-30T16:43:26;49.53;;;25.60;;
59424;SDS011;45231;44.826;20.312;2023-01-30T16:51:03;49.75;;;27.05;;
59424;SDS011;45231;44.826;20.312;2023-01-30T16:53:31;50.58;;;25.90;;
59424;SDS011;45231;44.826;20.312;2023-01-30T16:58:24;53.65;;;27.98;;
59424;SDS011;45231;44.826;20.312;2023-01-30T17:00:56;51.97;;;27.83;;
59424;SDS011;45231;44.826;20.312;2023-01-30T17:03:23;50.67;;;28.63;;
59424;SDS011;45231;44.826;20.312;2023-01-30T17:05:50;51.28;;;28.10;;
59424;SDS011;45231;44.826;20.312;2023-01-30T17:11:10;59.50;;;34.15;;
59424;SDS011;45231;44.826;20.312;2023-01-30T17:14:38;66.95;;;34.17;;
59424;SDS011;45231;44.826;20.312;2023-01-30T17:16:39;74.97;;;38.95;;
59424;SDS011;45231;44.826;20.312;2023-01-30T17:19:06;64.15;;;35.60;;
59424;SDS011;45231;44.826;20.312;2023-01-30T17:21:51;53.83;;;28.67;;
59424;SDS011;45231;44.826;20.312;2023-01-30T17:24:27;70.25;;;36.92;;
59424;SDS011;45231;44.826;20.312;2023-01-30T17:26:54;67.25;;;35.53;;
59424;SDS011;45231;44.826;20.312;2023-01-30T17:29:28;66.57;;;34.35;;
59424;SDS011;45231;44.826;20.312;2023-01-30T17:31:54;66.65;;;33.20;;
59424;SDS011;45231;44.826;20.312;2023-01-30T17:34:22;65.43;;;34.78;;
59424;SDS011;45231;44.826;20.312;2023-01-30T17:36:49;72.35;;;37.33;;
59424;SDS011;45231;44.826;20.312;2023-01-30T17:39:16;74.63;;;40.15;;
59424;SDS011;45231;44.826;20.312;2023-01-30T17:41:43;78.82;;;39.83;;
59424;SDS011;45231;44.826;20.312;2023-01-30T17:44:10;74.53;;;40.03;;
59424;SDS011;45231;44.826;20.312;2023-01-30T17:46:40;72.72;;;39.95;;
59424;SDS011;45231;44.826;20.312;2023-01-30T17:49:20;75.15;;;39.40;;
59424;SDS011;45231;44.826;20.312;2023-01-30T17:51:47;75.55;;;38.08;;